• Join FlightAware (Why Join?)
  • Login
  • US Flag 
10:02AM EDT


 

Airport Tracker/Info


-or-


 

Live Flight TrackerFlight Track Log ✈ UAL395 ✈ 20-Jun-2013 ✈ KORD - KSAN

Flight Track Log - Related Links

Times and Time Zones

All times are in EDT time to prevent confusion due to time zone crossing. See the UAL395 flight status page for this flight to view local times or setup timezone preferences in your user account.

Time Position Orientation Groundspeed Altitude Reporting Facility
EDT Latitude Longitude Course Direction KTS MPH feet Rate Location/Type
07:51PM 41.9333 -87.9167 253° West 180 207 2,500  Level Chicago TRACON
07:52PM 41.9000 -87.9667 228° Southwest 172 198 4,200 1,200 Climbing Chicago TRACON
07:53PM 41.9000 -88.1942 270° West  Level FlightAware Approximate
07:53PM 41.8500 -88.0167 217° Southwest 243 280 5,000  Level Chicago TRACON
07:54PM 41.8725 -88.3439 242° Southwest  Level FlightAware Approximate
07:55PM 41.8320 -88.4892 254° West  Level FlightAware Approximate
07:55PM 41.7964 -88.1150 234° Southwest 266 306 8,200  Level Chicago Center
07:56PM 41.7990 -88.6389 254° West  Level FlightAware Approximate
07:56PM 41.7914 -88.2394 267° West 282 325 11,500  Level Chicago Center
07:57PM 41.7658 -88.7884 253° West  Level FlightAware Approximate
07:57PM 41.7875 -88.3494 267° West 296 341 13,100  Level Chicago Center
07:58PM 41.7653 -88.4775 257° West 361 415 13,800 1,200 Climbing Chicago Center
07:59PM 41.7386 -88.6142 255° West 380 437 15,700 1,980 Climbing Chicago Center
08:00PM 41.7058 -88.7850 256° West 395 455 18,000 1,800 Climbing Chicago Center
08:01PM 41.6767 -88.9294 255° West 403 464 19,500 1,260 Climbing Chicago Center
08:02PM 41.6467 -89.0778 255° West 414 476 20,700 1,140 Climbing Chicago Center
08:03PM 41.6167 -89.2336 256° West 432 497 21,900 1,440 Climbing Chicago Center
08:04PM 41.5783 -89.4231 255° West 443 510 23,700 1,380 Climbing Chicago Center
08:05PM 41.5503 -89.5544 254° West 444 511 24,800 1,140 Climbing Chicago Center
08:06PM 41.5114 -89.7483 255° West 451 519 26,100 1,020 Climbing Chicago Center
08:07PM 41.4767 -89.9122 254° West 460 529 27,000 1,020 Climbing Chicago Center
08:08PM 41.4417 -90.0781 254° West 466 536 28,300 1,140 Climbing Chicago Center
08:09PM 41.4072 -90.2408 254° West 462 532 29,400 1,020 Climbing Chicago Center
08:10PM 41.3731 -90.4036 254° West 459 528 30,500 780 Climbing Chicago Center
08:11PM 41.3306 -90.5983 254° West 458 527 31,100 720 Climbing Chicago Center
08:12PM 41.2956 -90.7622 254° West 460 529 32,000 900 Climbing Chicago Center
08:13PM 41.2639 -90.9231 255° West 454 522 33,000 960 Climbing Chicago Center
08:14PM 41.2308 -91.0825 255° West 450 518 34,000 480 Climbing Chicago Center
08:15PM 41.1981 -91.2403 255° West 448 516 34,000  Level Chicago Center
08:16PM 41.1592 -91.4286 255° West 443 510 34,000  Level Chicago Center
08:18PM 41.1267 -91.5867 255° West 445 512 34,000  Level Chicago Center
08:19PM 41.0914 -91.7517 254° West 442 509 34,000  Level Chicago Center
08:20PM 41.0581 -91.9083 254° West 446 513 34,000  Level Chicago Center
08:21PM 41.0242 -92.0647 254° West 447 514 34,000  Level Chicago Center
08:22PM 40.9914 -92.2225 255° West 450 518 34,000  Level Chicago Center
08:23PM 40.9558 -92.3772 253° West 447 514 34,000  Level Chicago Center
08:24PM 40.9153 -92.5653 254° West 450 518 34,000  Level Chicago Center
08:25PM 40.8814 -92.7211 254° West 448 516 34,000  Level Chicago Center
08:26PM 40.8478 -92.8736 254° West 441 507 34,000 -60 Level Chicago Center
08:27PM 40.8131 -93.0242 253° West 436 502 33,900  Descending Chicago Center
08:28PM 40.7722 -93.2064 254° West 437 503 34,000  Climbing Chicago Center
08:29PM 40.7381 -93.3589 254° West 438 504 34,000  Level Chicago Center
08:30PM 40.6953 -93.5406 253° West 440 506 34,000  Level Minneapolis Center
08:31PM 40.6592 -93.6942 253° West 444 511 34,000  Level Minneapolis Center
08:32PM 40.6161 -93.8775 253° West 444 511 34,000  Level Minneapolis Center
08:33PM 40.5764 -94.0636 254° West 445 512 34,000  Level Minneapolis Center
08:34PM 40.5514 -94.2183 258° West 442 509 34,000  Level Minneapolis Center
08:35PM 40.5267 -94.3728 258° West 438 504 34,000  Level Minneapolis Center
08:37PM 40.4992 -94.5294 257° West 441 507 34,000  Level Minneapolis Center
08:38PM 40.4694 -94.7053 258° West 443 510 34,000  Level Minneapolis Center
08:39PM 40.4414 -94.8664 257° West 448 516 34,000  Level Minneapolis Center
08:40PM 40.4078 -95.0592 257° West 450 518 34,000  Level Minneapolis Center
08:41PM 40.3742 -95.2500 257° West 447 514 34,000  Level Minneapolis Center
08:42PM 40.3461 -95.4072 257° West 445 512 34,000  Level Minneapolis Center
08:43PM 40.3169 -95.5678 257° West 448 516 34,000  Level Minneapolis Center
08:44PM 40.2883 -95.7244 257° West 446 513 34,000  Level Minneapolis Center
08:45PM 40.2597 -95.8811 257° West 443 510 34,000  Level Minneapolis Center
08:46PM 40.2308 -96.0408 257° West 445 512 34,000  Level Minneapolis Center
08:47PM 40.2006 -96.1975 256° West 444 511 34,000  Level Minneapolis Center
08:48PM 40.1614 -96.3858 255° West 445 512 34,000  Level Minneapolis Center
08:49PM 40.1267 -96.5408 254° West 445 512 34,000  Level Minneapolis Center
08:50PM 40.0936 -96.6969 255° West 445 512 34,000  Level Minneapolis Center
08:51PM 40.0586 -96.8547 254° West 448 516 34,000  Level Minneapolis Center
08:52PM 40.0175 -97.0417 254° West 447 514 34,000  Level Minneapolis Center
08:53PM 39.9828 -97.1989 254° West 450 518 34,000  Level Minneapolis Center
08:55PM 39.9425 -97.3756 253° West 447 514 34,000  Level Minneapolis Center
08:56PM 39.9072 -97.5306 254° West 445 512 34,000 -60 Level Minneapolis Center
08:57PM 39.8722 -97.6836 253° West 443 510 33,900  Descending Minneapolis Center
08:58PM 39.8372 -97.8392 254° West 445 512 34,000  Climbing Minneapolis Center
08:59PM 39.8006 -97.9961 253° West 450 518 34,000  Level Minneapolis Center
09:00PM 39.7569 -98.1811 253° West 447 514 34,000  Level Minneapolis Center
09:01PM 39.7214 -98.3358 253° West 446 513 34,000  Level Minneapolis Center
09:02PM 39.6847 -98.4881 253° West 444 511 34,000  Level Minneapolis Center
09:03PM 39.6492 -98.6428 253° West 445 512 34,000  Level Minneapolis Center
09:04PM 39.6178 -98.7642 251° West 445 512 34,000  Level Denver Center
09:05PM 39.5342 -98.8836 228° Southwest 448 516 34,000  Level Denver Center
09:06PM 39.4378 -99.0114 226° Southwest 447 514 34,000  Level Denver Center
09:07PM 39.3550 -99.1208 226° Southwest 446 513 34,000  Level Denver Center
09:07PM 39.3019 -99.1933 227° Southwest 448 516 34,000  Level Kansas City Center
09:08PM 39.2442 -99.2675 225° Southwest 444 511 34,000  Level Denver Center
09:09PM 39.1531 -99.3903 226° Southwest 445 512 34,000  Level Denver Center
09:09PM 39.1131 -99.4433 226° Southwest 445 512 34,000  Level Kansas City Center
09:10PM 39.0272 -99.5578 226° Southwest 445 512 34,000  Level Kansas City Center
09:11PM 38.9750 -99.6286 227° Southwest 447 514 34,000  Level Denver Center
09:13PM 38.8525 -99.7956 227° Southwest 448 516 34,000  Level Kansas City Center
09:14PM 38.7567 -99.9272 227° Southwest 451 519 34,000  Level Kansas City Center
09:15PM 38.6750 -100.0383 227° Southwest 449 517 34,000  Level Kansas City Center
09:16PM 38.5792 -100.1653 226° Southwest 446 513 34,000 -60 Level Kansas City Center
09:17PM 38.4994 -100.2761 227° Southwest 445 512 33,900  Descending Kansas City Center
09:18PM 38.4239 -100.3914 230° Southwest 444 511 34,000  Climbing Kansas City Center
09:19PM 38.3825 -100.5633 253° West 449 517 34,000 -60 Level Kansas City Center
09:20PM 38.3481 -100.7097 253° West 452 520 33,900  Descending Kansas City Center
09:21PM 38.3092 -100.8803 254° West 452 520 34,000  Climbing Kansas City Center
09:22PM 38.2736 -101.0281 253° West 455 524 34,000  Level Kansas City Center
09:23PM 38.2342 -101.1981 254° West 453 521 34,000  Level Kansas City Center
09:23PM 38.2108 -101.2933 253° West 451 519 34,000 -120 Level Denver Center
09:24PM 38.1775 -101.4353 253° West 444 511 33,900  Descending Denver Center
09:25PM 38.1364 -101.6033 253° West 448 516 34,000  Climbing Denver Center
09:27PM 38.1017 -101.7481 253° West 450 518 34,000  Level Denver Center
09:28PM 38.0672 -101.8922 253° West 448 516 34,000  Level Denver Center
09:29PM 38.0256 -102.0597 253° West 447 514 34,000  Level Denver Center
09:30PM 37.9914 -102.2008 253° West 442 509 34,000  Level Denver Center
09:31PM 37.9503 -102.3669 253° West 444 511 34,000  Level Denver Center
09:32PM 37.9153 -102.5125 253° West 439 505 34,000  Level Denver Center
09:33PM 37.8747 -102.6747 252° West 434 499 34,000  Level Denver Center
09:34PM 37.8392 -102.8161 252° West 440 506 34,000  Level Denver Center
09:35PM 37.7967 -102.9808 252° West 442 509 34,000  Level Denver Center
09:36PM 37.7608 -103.1225 252° West 442 509 34,000  Level Denver Center
09:37PM 37.7250 -103.2631 252° West 440 506 34,000 -60 Level Denver Center
09:38PM 37.6833 -103.4250 252° West 435 501 33,900 -60 Descending Denver Center
09:39PM 37.6475 -103.5639 252° West 434 499 33,900  Level Denver Center
09:40PM 37.6058 -103.7267 252° West 437 503 34,000  Climbing Denver Center
09:41PM 37.5697 -103.8628 252° West 430 495 34,000  Level Denver Center
09:42PM 37.5261 -104.0300 252° West 438 504 34,000  Level Denver Center
09:43PM 37.4869 -104.1747 251° West 436 502 34,000  Level Denver Center
09:44PM 37.4511 -104.3100 252° West 427 491 34,000  Level Denver Center
09:45PM 37.4092 -104.4672 251° West 425 489 34,000  Level Denver Center
09:46PM 37.3656 -104.6264 251° West 429 494 34,000  Level Denver Center
09:47PM 37.3239 -104.7833 252° West 425 489 34,000  Level Denver Center
09:48PM 37.2872 -104.9175 251° West 425 489 34,000  Level Denver Center
09:49PM 37.2450 -105.0739 251° West 423 487 34,000  Level Denver Center
09:51PM 37.2075 -105.2067 251° West 422 486 34,000  Level Denver Center
09:52PM 37.1642 -105.3631 251° West 426 490 34,000  Level Denver Center
09:53PM 37.1272 -105.4964 251° West 423 487 34,000  Level Denver Center
09:54PM 37.0825 -105.6506 250° West 422 486 34,000  Level Denver Center
09:55PM 37.0458 -105.7836 251° West 423 487 34,000  Level Denver Center
09:56PM 37.0014 -105.9378 250° West 422 486 34,000 -60 Level Denver Center
09:57PM 36.9644 -106.0700 251° West 422 486 33,900  Descending Denver Center
09:58PM 36.9225 -106.2186 251° West 423 487 34,000  Climbing Denver Center
09:59PM 36.8828 -106.3517 250° West 427 491 34,000  Level Denver Center
10:00PM 36.8508 -106.4644 251° West 432 497 34,000  Level Denver Center
10:01PM 36.7989 -106.6439 250° West 432 497 34,000  Level Denver Center
10:02PM 36.7528 -106.7992 250° West 429 494 34,000  Level Denver Center
10:03PM 36.7144 -106.9311 250° West 425 489 34,000 -60 Level Denver Center
10:04PM 36.6683 -107.0861 250° West 427 491 33,900  Descending Denver Center
10:05PM 36.6289 -107.2181 250° West 426 490 34,000  Climbing Denver Center
10:06PM 36.5836 -107.3742 250° West 428 493 34,000  Level Denver Center
10:07PM 36.5431 -107.5072 249° West 429 494 34,000  Level Denver Center
10:08PM 36.4961 -107.6625 249° West 430 495 34,000  Level Denver Center
10:09PM 36.4561 -107.7953 250° West 429 494 34,000  Level Denver Center
10:10PM 36.4161 -107.9269 249° West 428 493 34,000  Level Denver Center
10:11PM 36.3686 -108.0789 249° West 423 487 34,000  Level Denver Center
10:12PM 36.3297 -108.2108 250° West 425 489 34,000  Level Denver Center
10:13PM 36.2825 -108.3642 249° West 426 490 34,000  Level Denver Center
10:14PM 36.2419 -108.4939 249° West 423 487 34,000  Level Denver Center
10:15PM 36.1944 -108.6461 249° West 425 489 34,000  Level Denver Center
10:16PM 36.1553 -108.7744 249° West 422 486 34,000  Level Denver Center
10:17PM 36.1133 -108.9025 248° West 429 494 34,000  Level Albuquerque Center
10:18PM 36.0694 -109.0383 248° West 428 493 34,000  Level Albuquerque Center
10:19PM 36.0239 -109.1814 249° West 425 489 34,000  Level Albuquerque Center
10:20PM 35.9831 -109.3111 249° West 424 488 34,000  Level Albuquerque Center
10:21PM 35.9414 -109.4400 248° West 423 487 34,000  Level Albuquerque Center
10:22PM 35.8933 -109.5928 249° West 426 490 34,000  Level Albuquerque Center
10:23PM 35.8478 -109.7203 246° West 426 490 34,000  Level Albuquerque Center
10:24PM 35.7978 -109.8708 248° West 423 487 34,000  Level Albuquerque Center
10:25PM 35.7550 -110.0022 248° West 429 494 34,000  Level Albuquerque Center
10:26PM 35.7061 -110.1514 248° West 424 488 34,000  Level Albuquerque Center
10:27PM 35.6631 -110.2819 248° West 427 491 34,000  Level Albuquerque Center
10:28PM 35.6189 -110.4119 247° West 430 495 34,000  Level Albuquerque Center
10:29PM 35.5672 -110.5683 248° West 439 505 34,000  Level Albuquerque Center
10:31PM 35.5231 -110.7006 248° West 439 505 34,000  Level Albuquerque Center
10:32PM 35.4706 -110.8561 248° West 441 507 34,000  Level Albuquerque Center
10:33PM 35.4244 -110.9894 247° West 442 509 34,000  Level Albuquerque Center
10:34PM 35.3742 -111.1447 248° West 440 506 34,000  Level Albuquerque Center
10:35PM 35.3283 -111.2758 247° West 438 504 34,000  Level Albuquerque Center
10:36PM 35.2892 -111.4000 249° West 443 510 34,000 -60 Level Albuquerque Center
10:37PM 35.2331 -111.5608 247° West 433 498 33,900  Descending Albuquerque Center
10:38PM 35.1858 -111.6964 247° West 433 498 34,000  Climbing Albuquerque Center
10:39PM 35.1406 -111.8297 247° West 438 504 34,000  Level Albuquerque Center
10:40PM 35.0919 -111.9672 247° West 440 506 34,000  Level Albuquerque Center
10:41PM 35.0433 -112.1053 247° West 442 509 34,000  Level Albuquerque Center
10:42PM 34.9861 -112.2703 247° West 442 509 34,000 -240 Level Albuquerque Center
10:43PM 34.9378 -112.4069 247° West 440 506 33,600 -1,080 Descending Albuquerque Center
10:44PM 34.8897 -112.5414 246° West 436 502 31,900 -840 Descending Albuquerque Center
10:45PM 34.8408 -112.6789 247° West 438 504 32,000  Climbing Albuquerque Center
10:46PM 34.7922 -112.8158 247° West 440 506 32,000 -60 Level Albuquerque Center
10:47PM 34.7433 -112.9503 246° West 439 505 31,900  Descending Albuquerque Center
10:48PM 34.6944 -113.0856 246° West 437 503 32,000  Climbing Albuquerque Center
10:49PM 34.6458 -113.2200 246° West 437 503 32,000  Level Albuquerque Center
10:50PM 34.5858 -113.3819 246° West 439 505 32,000  Level Albuquerque Center
10:51PM 34.5372 -113.5186 247° West 440 506 32,000  Level Albuquerque Center
10:52PM 34.4869 -113.6519 245° Southwest 440 506 32,000 -60 Level Albuquerque Center
10:53PM 34.4378 -113.7847 246° West 437 503 31,900  Descending Albuquerque Center
10:54PM 34.3892 -113.9172 246° West 433 498 32,000  Climbing Albuquerque Center
10:55PM 34.3281 -114.0786 245° Southwest 434 499 32,000 -180 Level Albuquerque Center
10:56PM 34.2764 -114.2164 246° West 439 505 31,700 -1,020 Descending Albuquerque Center
10:57PM 34.2258 -114.3528 246° West 443 510 30,000 -840 Descending Albuquerque Center
10:58PM 34.1675 -114.5100 246° West 446 513 29,900 -60 Descending Los Angeles Center
10:59PM 34.1161 -114.6461 246° West 447 514 29,900  Level Los Angeles Center
11:00PM 34.0600 -114.7797 243° Southwest 447 514 29,900  Level Los Angeles Center
11:02PM 34.0014 -114.9108 242° Southwest 446 513 29,900 -900 Level Los Angeles Center
11:03PM 33.9439 -115.0400 242° Southwest 440 506 28,100 -2,400 Descending Los Angeles Center
11:04PM 33.8772 -115.1897 242° Southwest 426 490 25,000 -1,980 Descending Los Angeles Center
11:05PM 33.8233 -115.3128 242° Southwest 417 480 24,000 -540 Descending Los Angeles Center
11:06PM 33.7683 -115.4361 242° Southwest 419 482 23,900 -60 Descending Los Angeles Center
11:07PM 33.7131 -115.5575 241° Southwest 418 481 23,900  Level Los Angeles Center
11:08PM 33.6575 -115.6789 241° Southwest 416 479 23,900  Level Los Angeles Center
11:09PM 33.5933 -115.7933 236° Southwest 417 480 23,900  Level Los Angeles Center
11:10PM 33.4903 -115.9086 223° Southwest 424 488 23,900 -540 Level Los Angeles Center
11:11PM 33.4053 -116.0039 223° Southwest 421 484 22,900 -1,920 Descending Los Angeles Center
11:12PM 33.3200 -116.0981 223° Southwest 419 482 20,000 -2,760 Descending Los Angeles Center
11:13PM 33.2361 -116.1903 223° Southwest 415 478 17,300 -2,280 Descending Los Angeles Center
11:14PM 33.1567 -116.2778 223° Southwest 399 459 15,300 -2,280 Descending Los Angeles Center
11:15PM 33.0661 -116.3778 223° Southwest 379 436 12,700 -1,680 Descending Los Angeles Center
11:16PM 32.9942 -116.4506 220° Southwest 340 391 11,800 -960 Descending Los Angeles Center
11:17PM 32.9139 -116.4967 206° Southwest 321 369 10,800 -900 Descending Los Angeles Center
11:18PM 32.8461 -116.5378 207° Southwest 301 346 10,000 -1,080 Descending Los Angeles Center
11:19PM 32.7972 -116.6294 238° Southwest 278 320 8,600 -1,440 Descending Los Angeles Center
11:20PM 32.7589 -116.7092 240° Southwest 279 321 7,100 -1,200 Descending Los Angeles Center
11:21PM 32.7211 -116.7883 240° Southwest 278 320 6,100 -960 Descending Los Angeles Center
11:22PM 32.6903 -116.8686 245° Southwest 271 312 5,100 -1,020 Descending Los Angeles Center
11:23PM 32.6711 -116.9458 254° West 254 292 4,100 -1,020 Descending Los Angeles Center